sensor_id;sensor_type;location;lat;lon;timestamp;P1;durP1;ratioP1;P2;durP2;ratioP2
10934;SDS011;5520;45.752;4.874;2022-12-11T00:00:28;11.30;;;6.87;;
10934;SDS011;5520;45.752;4.874;2022-12-11T00:02:56;13.33;;;7.10;;
10934;SDS011;5520;45.752;4.874;2022-12-11T00:05:24;8.33;;;6.47;;
10934;SDS011;5520;45.752;4.874;2022-12-11T00:07:52;9.30;;;6.20;;
10934;SDS011;5520;45.752;4.874;2022-12-11T00:10:22;8.37;;;7.03;;
10934;SDS011;5520;45.752;4.874;2022-12-11T00:12:50;9.23;;;6.70;;
10934;SDS011;5520;45.752;4.874;2022-12-11T00:15:18;11.40;;;6.57;;
10934;SDS011;5520;45.752;4.874;2022-12-11T00:17:47;14.77;;;6.00;;
10934;SDS011;5520;45.752;4.874;2022-12-11T00:20:15;11.90;;;6.93;;
10934;SDS011;5520;45.752;4.874;2022-12-11T00:22:43;8.83;;;5.97;;
10934;SDS011;5520;45.752;4.874;2022-12-11T00:25:11;11.93;;;6.70;;
10934;SDS011;5520;45.752;4.874;2022-12-11T00:27:41;10.00;;;5.60;;
10934;SDS011;5520;45.752;4.874;2022-12-11T00:30:09;8.53;;;5.30;;
10934;SDS011;5520;45.752;4.874;2022-12-11T00:32:37;8.03;;;5.30;;
10934;SDS011;5520;45.752;4.874;2022-12-11T00:35:05;7.77;;;5.23;;
10934;SDS011;5520;45.752;4.874;2022-12-11T00:37:34;9.10;;;6.13;;
10934;SDS011;5520;45.752;4.874;2022-12-11T00:40:02;9.70;;;5.87;;
10934;SDS011;5520;45.752;4.874;2022-12-11T00:42:30;8.80;;;5.03;;
10934;SDS011;5520;45.752;4.874;2022-12-11T00:44:59;9.20;;;5.27;;
10934;SDS011;5520;45.752;4.874;2022-12-11T00:47:28;9.27;;;5.63;;
10934;SDS011;5520;45.752;4.874;2022-12-11T00:49:56;6.23;;;4.40;;
10934;SDS011;5520;45.752;4.874;2022-12-11T00:52:24;8.17;;;5.63;;
10934;SDS011;5520;45.752;4.874;2022-12-11T00:54:52;7.10;;;4.63;;
10934;SDS011;5520;45.752;4.874;2022-12-11T00:57:19;9.07;;;5.13;;
10934;SDS011;5520;45.752;4.874;2022-12-11T00:59:47;7.60;;;4.80;;
10934;SDS011;5520;45.752;4.874;2022-12-11T01:02:17;7.60;;;5.23;;
10934;SDS011;5520;45.752;4.874;2022-12-11T01:04:45;10.50;;;6.13;;
10934;SDS011;5520;45.752;4.874;2022-12-11T01:07:13;8.83;;;5.03;;
10934;SDS011;5520;45.752;4.874;2022-12-11T01:09:41;8.83;;;5.77;;
10934;SDS011;5520;45.752;4.874;2022-12-11T01:12:26;6.27;;;5.30;;
10934;SDS011;5520;45.752;4.874;2022-12-11T01:14:54;8.50;;;5.30;;
10934;SDS011;5520;45.752;4.874;2022-12-11T01:17:23;8.23;;;5.13;;
10934;SDS011;5520;45.752;4.874;2022-12-11T01:19:52;7.97;;;5.57;;
10934;SDS011;5520;45.752;4.874;2022-12-11T01:22:20;10.40;;;5.57;;
10934;SDS011;5520;45.752;4.874;2022-12-11T01:24:48;8.07;;;5.00;;
10934;SDS011;5520;45.752;4.874;2022-12-11T01:27:16;8.30;;;5.00;;
10934;SDS011;5520;45.752;4.874;2022-12-11T01:29:44;9.73;;;5.10;;
10934;SDS011;5520;45.752;4.874;2022-12-11T01:32:12;8.97;;;5.50;;
10934;SDS011;5520;45.752;4.874;2022-12-11T01:34:41;7.70;;;5.47;;
10934;SDS011;5520;45.752;4.874;2022-12-11T01:37:09;6.23;;;4.07;;
10934;SDS011;5520;45.752;4.874;2022-12-11T01:39:37;10.33;;;5.30;;
10934;SDS011;5520;45.752;4.874;2022-12-11T01:42:05;9.80;;;5.37;;
10934;SDS011;5520;45.752;4.874;2022-12-11T01:47:22;6.60;;;4.70;;
10934;SDS011;5520;45.752;4.874;2022-12-11T01:49:51;9.17;;;5.60;;
10934;SDS011;5520;45.752;4.874;2022-12-11T01:52:20;12.80;;;6.80;;
10934;SDS011;5520;45.752;4.874;2022-12-11T01:54:48;11.97;;;6.17;;
10934;SDS011;5520;45.752;4.874;2022-12-11T01:57:17;6.87;;;4.97;;
10934;SDS011;5520;45.752;4.874;2022-12-11T01:59:45;8.43;;;5.10;;
10934;SDS011;5520;45.752;4.874;2022-12-11T02:02:14;8.40;;;5.27;;
10934;SDS011;5520;45.752;4.874;2022-12-11T02:04:42;8.40;;;5.53;;
10934;SDS011;5520;45.752;4.874;2022-12-11T02:07:12;7.23;;;4.93;;
10934;SDS011;5520;45.752;4.874;2022-12-11T02:09:41;8.50;;;5.50;;
10934;SDS011;5520;45.752;4.874;2022-12-11T02:12:11;9.20;;;6.17;;
10934;SDS011;5520;45.752;4.874;2022-12-11T02:14:42;7.57;;;5.30;;
10934;SDS011;5520;45.752;4.874;2022-12-11T02:17:14;9.07;;;5.20;;
10934;SDS011;5520;45.752;4.874;2022-12-11T02:19:45;6.90;;;5.10;;
10934;SDS011;5520;45.752;4.874;2022-12-11T02:22:18;7.93;;;6.10;;
10934;SDS011;5520;45.752;4.874;2022-12-11T02:24:52;7.40;;;5.63;;
10934;SDS011;5520;45.752;4.874;2022-12-11T02:27:26;9.23;;;5.90;;
10934;SDS011;5520;45.752;4.874;2022-12-11T02:29:58;8.50;;;5.60;;
10934;SDS011;5520;45.752;4.874;2022-12-11T02:32:30;8.23;;;5.23;;
10934;SDS011;5520;45.752;4.874;2022-12-11T02:35:01;7.43;;;4.83;;
10934;SDS011;5520;45.752;4.874;2022-12-11T02:37:31;7.33;;;5.37;;
10934;SDS011;5520;45.752;4.874;2022-12-11T02:40:00;10.00;;;6.20;;
10934;SDS011;5520;45.752;4.874;2022-12-11T02:42:29;7.37;;;5.63;;
10934;SDS011;5520;45.752;4.874;2022-12-11T02:45:00;7.30;;;4.93;;
10934;SDS011;5520;45.752;4.874;2022-12-11T02:47:29;7.00;;;4.47;;
10934;SDS011;5520;45.752;4.874;2022-12-11T02:49:58;7.67;;;5.00;;
10934;SDS011;5520;45.752;4.874;2022-12-11T02:52:27;7.97;;;5.30;;
10934;SDS011;5520;45.752;4.874;2022-12-11T02:54:57;7.00;;;5.47;;
10934;SDS011;5520;45.752;4.874;2022-12-11T02:57:26;6.77;;;5.10;;
10934;SDS011;5520;45.752;4.874;2022-12-11T02:59:56;8.63;;;5.17;;
10934;SDS011;5520;45.752;4.874;2022-12-11T03:02:26;9.53;;;6.00;;
10934;SDS011;5520;45.752;4.874;2022-12-11T03:04:54;9.73;;;5.33;;
10934;SDS011;5520;45.752;4.874;2022-12-11T03:07:25;8.03;;;5.10;;
10934;SDS011;5520;45.752;4.874;2022-12-11T03:09:55;8.37;;;5.50;;
10934;SDS011;5520;45.752;4.874;2022-12-11T03:12:26;8.03;;;5.47;;
10934;SDS011;5520;45.752;4.874;2022-12-11T03:14:56;11.23;;;6.33;;
10934;SDS011;5520;45.752;4.874;2022-12-11T03:17:29;7.37;;;4.83;;
10934;SDS011;5520;45.752;4.874;2022-12-11T03:20:02;8.50;;;4.83;;
10934;SDS011;5520;45.752;4.874;2022-12-11T03:22:34;7.30;;;5.03;;
10934;SDS011;5520;45.752;4.874;2022-12-11T03:25:06;9.13;;;5.63;;
10934;SDS011;5520;45.752;4.874;2022-12-11T03:27:36;7.27;;;5.13;;
10934;SDS011;5520;45.752;4.874;2022-12-11T03:30:10;7.00;;;5.07;;
10934;SDS011;5520;45.752;4.874;2022-12-11T03:32:43;9.53;;;5.47;;
10934;SDS011;5520;45.752;4.874;2022-12-11T03:35:16;8.77;;;5.70;;
10934;SDS011;5520;45.752;4.874;2022-12-11T03:37:47;10.20;;;5.87;;
10934;SDS011;5520;45.752;4.874;2022-12-11T03:40:18;7.87;;;5.30;;
10934;SDS011;5520;45.752;4.874;2022-12-11T03:42:47;9.50;;;5.27;;
10934;SDS011;5520;45.752;4.874;2022-12-11T03:45:18;10.27;;;5.27;;
10934;SDS011;5520;45.752;4.874;2022-12-11T03:47:48;8.47;;;5.53;;
10934;SDS011;5520;45.752;4.874;2022-12-11T03:50:18;7.93;;;5.10;;
10934;SDS011;5520;45.752;4.874;2022-12-11T03:52:47;9.03;;;5.53;;
10934;SDS011;5520;45.752;4.874;2022-12-11T03:55:17;7.00;;;5.33;;
10934;SDS011;5520;45.752;4.874;2022-12-11T03:57:47;9.73;;;5.60;;
10934;SDS011;5520;45.752;4.874;2022-12-11T04:00:17;8.03;;;5.17;;
10934;SDS011;5520;45.752;4.874;2022-12-11T04:02:47;6.60;;;4.80;;
10934;SDS011;5520;45.752;4.874;2022-12-11T04:05:41;10.37;;;5.73;;
10934;SDS011;5520;45.752;4.874;2022-12-11T04:08:09;6.90;;;5.33;;
10934;SDS011;5520;45.752;4.874;2022-12-11T04:10:37;7.50;;;5.10;;
10934;SDS011;5520;45.752;4.874;2022-12-11T04:13:05;6.67;;;4.93;;
10934;SDS011;5520;45.752;4.874;2022-12-11T04:15:33;8.87;;;4.90;;
10934;SDS011;5520;45.752;4.874;2022-12-11T04:18:01;7.20;;;5.53;;
10934;SDS011;5520;45.752;4.874;2022-12-11T04:20:47;8.00;;;5.63;;
10934;SDS011;5520;45.752;4.874;2022-12-11T04:23:33;8.30;;;5.20;;
10934;SDS011;5520;45.752;4.874;2022-12-11T04:26:19;8.57;;;5.20;;
10934;SDS011;5520;45.752;4.874;2022-12-11T04:28:47;8.23;;;5.40;;
10934;SDS011;5520;45.752;4.874;2022-12-11T04:31:18;7.60;;;4.70;;
10934;SDS011;5520;45.752;4.874;2022-12-11T04:33:46;7.47;;;5.30;;
10934;SDS011;5520;45.752;4.874;2022-12-11T04:36:16;6.60;;;4.57;;
10934;SDS011;5520;45.752;4.874;2022-12-11T04:38:44;7.40;;;5.37;;
10934;SDS011;5520;45.752;4.874;2022-12-11T04:41:13;11.73;;;6.37;;
10934;SDS011;5520;45.752;4.874;2022-12-11T04:43:41;7.70;;;5.60;;
10934;SDS011;5520;45.752;4.874;2022-12-11T04:46:11;9.27;;;5.47;;
10934;SDS011;5520;45.752;4.874;2022-12-11T04:48:39;6.40;;;4.13;;
10934;SDS011;5520;45.752;4.874;2022-12-11T04:51:09;10.07;;;6.37;;
10934;SDS011;5520;45.752;4.874;2022-12-11T04:53:40;7.43;;;5.37;;
10934;SDS011;5520;45.752;4.874;2022-12-11T04:56:10;10.10;;;6.23;;
10934;SDS011;5520;45.752;4.874;2022-12-11T04:58:40;9.70;;;6.27;;
10934;SDS011;5520;45.752;4.874;2022-12-11T05:01:09;8.77;;;5.60;;
10934;SDS011;5520;45.752;4.874;2022-12-11T05:03:38;9.67;;;5.13;;
10934;SDS011;5520;45.752;4.874;2022-12-11T05:06:07;7.93;;;5.40;;
10934;SDS011;5520;45.752;4.874;2022-12-11T05:08:35;9.70;;;5.50;;
10934;SDS011;5520;45.752;4.874;2022-12-11T05:11:06;9.63;;;5.87;;
10934;SDS011;5520;45.752;4.874;2022-12-11T05:13:35;8.47;;;5.33;;
10934;SDS011;5520;45.752;4.874;2022-12-11T05:16:04;12.33;;;5.57;;
10934;SDS011;5520;45.752;4.874;2022-12-11T05:18:32;9.60;;;6.00;;
10934;SDS011;5520;45.752;4.874;2022-12-11T05:21:01;10.23;;;5.60;;
10934;SDS011;5520;45.752;4.874;2022-12-11T05:23:30;8.30;;;5.87;;
10934;SDS011;5520;45.752;4.874;2022-12-11T05:25:59;10.07;;;5.70;;
10934;SDS011;5520;45.752;4.874;2022-12-11T05:28:29;8.67;;;5.53;;
10934;SDS011;5520;45.752;4.874;2022-12-11T05:30:58;12.77;;;6.27;;
10934;SDS011;5520;45.752;4.874;2022-12-11T05:33:26;11.47;;;6.07;;
10934;SDS011;5520;45.752;4.874;2022-12-11T05:35:55;8.20;;;5.10;;
10934;SDS011;5520;45.752;4.874;2022-12-11T05:38:23;8.37;;;5.00;;
10934;SDS011;5520;45.752;4.874;2022-12-11T05:40:54;8.20;;;5.23;;
10934;SDS011;5520;45.752;4.874;2022-12-11T05:43:23;8.90;;;6.40;;
10934;SDS011;5520;45.752;4.874;2022-12-11T05:45:53;9.00;;;5.30;;
10934;SDS011;5520;45.752;4.874;2022-12-11T05:48:21;11.03;;;6.80;;
10934;SDS011;5520;45.752;4.874;2022-12-11T05:50:56;14.70;;;5.73;;
10934;SDS011;5520;45.752;4.874;2022-12-11T05:53:24;9.10;;;6.03;;
10934;SDS011;5520;45.752;4.874;2022-12-11T05:55:53;14.73;;;5.97;;
10934;SDS011;5520;45.752;4.874;2022-12-11T05:58:21;11.00;;;6.07;;
10934;SDS011;5520;45.752;4.874;2022-12-11T06:00:49;12.27;;;5.90;;
10934;SDS011;5520;45.752;4.874;2022-12-11T06:03:19;9.20;;;6.00;;
10934;SDS011;5520;45.752;4.874;2022-12-11T06:05:47;8.50;;;5.80;;
10934;SDS011;5520;45.752;4.874;2022-12-11T06:08:16;8.47;;;5.53;;
10934;SDS011;5520;45.752;4.874;2022-12-11T06:10:44;12.50;;;6.80;;
10934;SDS011;5520;45.752;4.874;2022-12-11T06:13:13;10.20;;;8.87;;
10934;SDS011;5520;45.752;4.874;2022-12-11T06:15:41;8.87;;;5.50;;
10934;SDS011;5520;45.752;4.874;2022-12-11T06:18:09;10.97;;;6.33;;
10934;SDS011;5520;45.752;4.874;2022-12-11T06:20:39;10.57;;;6.93;;
10934;SDS011;5520;45.752;4.874;2022-12-11T06:23:07;11.47;;;7.13;;
10934;SDS011;5520;45.752;4.874;2022-12-11T06:25:36;9.47;;;5.40;;
10934;SDS011;5520;45.752;4.874;2022-12-11T06:28:04;9.30;;;6.20;;
10934;SDS011;5520;45.752;4.874;2022-12-11T06:30:32;9.03;;;5.87;;
10934;SDS011;5520;45.752;4.874;2022-12-11T06:33:04;10.37;;;6.90;;
10934;SDS011;5520;45.752;4.874;2022-12-11T06:35:32;14.23;;;7.33;;
10934;SDS011;5520;45.752;4.874;2022-12-11T06:38:09;15.57;;;7.97;;
10934;SDS011;5520;45.752;4.874;2022-12-11T06:40:37;12.60;;;6.70;;
10934;SDS011;5520;45.752;4.874;2022-12-11T06:43:05;10.57;;;6.73;;
10934;SDS011;5520;45.752;4.874;2022-12-11T06:45:33;11.57;;;7.33;;
10934;SDS011;5520;45.752;4.874;2022-12-11T06:48:02;11.77;;;6.30;;
10934;SDS011;5520;45.752;4.874;2022-12-11T06:50:30;10.93;;;6.97;;
10934;SDS011;5520;45.752;4.874;2022-12-11T06:52:59;12.23;;;6.97;;
10934;SDS011;5520;45.752;4.874;2022-12-11T06:55:29;14.40;;;6.87;;
10934;SDS011;5520;45.752;4.874;2022-12-11T06:57:57;10.97;;;7.13;;
10934;SDS011;5520;45.752;4.874;2022-12-11T07:00:25;12.10;;;7.90;;
10934;SDS011;5520;45.752;4.874;2022-12-11T07:02:53;13.33;;;7.33;;
10934;SDS011;5520;45.752;4.874;2022-12-11T07:05:21;13.13;;;7.50;;
10934;SDS011;5520;45.752;4.874;2022-12-11T07:07:51;9.57;;;7.30;;
10934;SDS011;5520;45.752;4.874;2022-12-11T07:10:19;9.60;;;6.53;;
10934;SDS011;5520;45.752;4.874;2022-12-11T07:12:49;10.90;;;6.83;;
10934;SDS011;5520;45.752;4.874;2022-12-11T07:15:18;8.63;;;6.20;;
10934;SDS011;5520;45.752;4.874;2022-12-11T07:17:46;9.63;;;5.97;;
10934;SDS011;5520;45.752;4.874;2022-12-11T07:20:15;13.03;;;6.20;;
10934;SDS011;5520;45.752;4.874;2022-12-11T07:22:43;9.03;;;6.33;;
10934;SDS011;5520;45.752;4.874;2022-12-11T07:25:12;12.40;;;6.37;;
10934;SDS011;5520;45.752;4.874;2022-12-11T07:27:40;11.33;;;7.23;;
10934;SDS011;5520;45.752;4.874;2022-12-11T07:30:10;12.63;;;6.90;;
10934;SDS011;5520;45.752;4.874;2022-12-11T07:32:38;10.40;;;7.33;;
10934;SDS011;5520;45.752;4.874;2022-12-11T07:35:06;11.57;;;7.67;;
10934;SDS011;5520;45.752;4.874;2022-12-11T07:37:35;10.20;;;6.40;;
10934;SDS011;5520;45.752;4.874;2022-12-11T07:40:04;12.37;;;6.83;;
10934;SDS011;5520;45.752;4.874;2022-12-11T07:42:32;11.70;;;6.73;;
10934;SDS011;5520;45.752;4.874;2022-12-11T07:45:00;9.47;;;6.80;;
10934;SDS011;5520;45.752;4.874;2022-12-11T07:47:29;9.13;;;6.13;;
10934;SDS011;5520;45.752;4.874;2022-12-11T07:49:57;9.73;;;6.97;;
10934;SDS011;5520;45.752;4.874;2022-12-11T07:52:25;11.00;;;7.07;;
10934;SDS011;5520;45.752;4.874;2022-12-11T07:54:53;11.80;;;7.97;;
10934;SDS011;5520;45.752;4.874;2022-12-11T07:57:21;8.30;;;7.07;;
10934;SDS011;5520;45.752;4.874;2022-12-11T07:59:49;11.37;;;7.73;;
10934;SDS011;5520;45.752;4.874;2022-12-11T08:02:17;9.53;;;6.73;;
10934;SDS011;5520;45.752;4.874;2022-12-11T08:04:49;10.77;;;6.07;;
10934;SDS011;5520;45.752;4.874;2022-12-11T08:07:17;9.30;;;6.20;;
10934;SDS011;5520;45.752;4.874;2022-12-11T08:09:45;11.23;;;7.13;;
10934;SDS011;5520;45.752;4.874;2022-12-11T08:12:13;10.57;;;6.80;;
10934;SDS011;5520;45.752;4.874;2022-12-11T08:14:42;10.93;;;7.10;;
10934;SDS011;5520;45.752;4.874;2022-12-11T08:17:10;11.23;;;7.93;;
10934;SDS011;5520;45.752;4.874;2022-12-11T08:19:38;14.90;;;7.97;;
10934;SDS011;5520;45.752;4.874;2022-12-11T08:22:08;12.23;;;8.10;;
10934;SDS011;5520;45.752;4.874;2022-12-11T08:24:36;12.67;;;7.63;;
10934;SDS011;5520;45.752;4.874;2022-12-11T08:27:04;12.47;;;7.70;;
10934;SDS011;5520;45.752;4.874;2022-12-11T08:29:32;12.83;;;8.53;;
10934;SDS011;5520;45.752;4.874;2022-12-11T08:32:00;10.73;;;7.80;;
10934;SDS011;5520;45.752;4.874;2022-12-11T08:34:35;11.67;;;7.37;;
10934;SDS011;5520;45.752;4.874;2022-12-11T08:37:03;15.43;;;8.17;;
10934;SDS011;5520;45.752;4.874;2022-12-11T08:39:34;12.50;;;7.87;;
10934;SDS011;5520;45.752;4.874;2022-12-11T08:42:02;11.10;;;6.97;;
10934;SDS011;5520;45.752;4.874;2022-12-11T08:44:30;13.53;;;7.63;;
10934;SDS011;5520;45.752;4.874;2022-12-11T08:46:58;14.53;;;7.77;;
10934;SDS011;5520;45.752;4.874;2022-12-11T08:49:26;15.80;;;8.00;;
10934;SDS011;5520;45.752;4.874;2022-12-11T08:51:59;15.73;;;9.37;;
10934;SDS011;5520;45.752;4.874;2022-12-11T08:54:27;12.80;;;7.83;;
10934;SDS011;5520;45.752;4.874;2022-12-11T08:56:57;12.77;;;7.87;;
10934;SDS011;5520;45.752;4.874;2022-12-11T08:59:25;15.60;;;9.57;;
10934;SDS011;5520;45.752;4.874;2022-12-11T09:01:53;12.63;;;8.37;;
10934;SDS011;5520;45.752;4.874;2022-12-11T09:04:21;12.93;;;8.10;;
10934;SDS011;5520;45.752;4.874;2022-12-11T09:06:49;11.67;;;8.47;;
10934;SDS011;5520;45.752;4.874;2022-12-11T09:09:17;16.23;;;7.87;;
10934;SDS011;5520;45.752;4.874;2022-12-11T09:11:45;14.47;;;7.67;;
10934;SDS011;5520;45.752;4.874;2022-12-11T09:14:14;14.10;;;7.73;;
10934;SDS011;5520;45.752;4.874;2022-12-11T09:16:42;18.60;;;11.57;;
10934;SDS011;5520;45.752;4.874;2022-12-11T09:19:11;12.63;;;8.07;;
10934;SDS011;5520;45.752;4.874;2022-12-11T09:21:40;11.40;;;8.00;;
10934;SDS011;5520;45.752;4.874;2022-12-11T09:24:09;9.73;;;6.43;;
10934;SDS011;5520;45.752;4.874;2022-12-11T09:26:37;19.53;;;9.47;;
10934;SDS011;5520;45.752;4.874;2022-12-11T09:29:06;12.13;;;8.43;;
10934;SDS011;5520;45.752;4.874;2022-12-11T09:31:35;15.63;;;8.73;;
10934;SDS011;5520;45.752;4.874;2022-12-11T09:34:04;12.57;;;7.97;;
10934;SDS011;5520;45.752;4.874;2022-12-11T09:36:33;10.90;;;7.13;;
10934;SDS011;5520;45.752;4.874;2022-12-11T09:39:01;12.07;;;7.93;;
10934;SDS011;5520;45.752;4.874;2022-12-11T09:41:36;13.80;;;7.83;;
10934;SDS011;5520;45.752;4.874;2022-12-11T09:44:12;13.57;;;9.23;;
10934;SDS011;5520;45.752;4.874;2022-12-11T09:46:43;13.67;;;8.53;;
10934;SDS011;5520;45.752;4.874;2022-12-11T09:49:16;14.20;;;7.57;;
10934;SDS011;5520;45.752;4.874;2022-12-11T09:51:47;14.97;;;8.17;;
10934;SDS011;5520;45.752;4.874;2022-12-11T09:54:16;14.60;;;8.67;;
10934;SDS011;5520;45.752;4.874;2022-12-11T09:56:45;12.80;;;7.33;;
10934;SDS011;5520;45.752;4.874;2022-12-11T09:59:19;11.93;;;7.80;;
10934;SDS011;5520;45.752;4.874;2022-12-11T10:01:52;11.60;;;8.57;;
10934;SDS011;5520;45.752;4.874;2022-12-11T10:07:08;13.07;;;8.87;;
10934;SDS011;5520;45.752;4.874;2022-12-11T10:09:41;14.37;;;7.83;;
10934;SDS011;5520;45.752;4.874;2022-12-11T10:12:19;14.13;;;8.83;;
10934;SDS011;5520;45.752;4.874;2022-12-11T10:14:54;15.73;;;10.07;;
10934;SDS011;5520;45.752;4.874;2022-12-11T10:17:28;12.00;;;7.73;;
10934;SDS011;5520;45.752;4.874;2022-12-11T10:19:59;15.43;;;9.03;;
10934;SDS011;5520;45.752;4.874;2022-12-11T10:22:30;15.87;;;9.27;;
10934;SDS011;5520;45.752;4.874;2022-12-11T10:24:58;10.30;;;7.17;;
10934;SDS011;5520;45.752;4.874;2022-12-11T10:27:38;16.93;;;9.30;;
10934;SDS011;5520;45.752;4.874;2022-12-11T10:30:12;13.30;;;9.23;;
10934;SDS011;5520;45.752;4.874;2022-12-11T10:32:44;14.50;;;8.57;;
10934;SDS011;5520;45.752;4.874;2022-12-11T10:35:17;14.90;;;10.97;;
10934;SDS011;5520;45.752;4.874;2022-12-11T10:37:45;17.00;;;9.23;;
10934;SDS011;5520;45.752;4.874;2022-12-11T10:40:13;15.17;;;9.17;;
10934;SDS011;5520;45.752;4.874;2022-12-11T10:42:50;14.47;;;8.97;;
10934;SDS011;5520;45.752;4.874;2022-12-11T10:45:18;18.13;;;9.73;;
10934;SDS011;5520;45.752;4.874;2022-12-11T10:47:47;17.93;;;9.17;;
10934;SDS011;5520;45.752;4.874;2022-12-11T10:50:21;13.67;;;9.13;;
10934;SDS011;5520;45.752;4.874;2022-12-11T10:52:50;15.93;;;9.40;;
10934;SDS011;5520;45.752;4.874;2022-12-11T10:55:21;12.90;;;7.93;;
10934;SDS011;5520;45.752;4.874;2022-12-11T10:57:54;14.90;;;10.03;;
10934;SDS011;5520;45.752;4.874;2022-12-11T11:00:28;13.93;;;8.40;;
10934;SDS011;5520;45.752;4.874;2022-12-11T11:02:58;14.33;;;7.80;;
10934;SDS011;5520;45.752;4.874;2022-12-11T11:05:29;12.97;;;8.43;;
10934;SDS011;5520;45.752;4.874;2022-12-11T11:08:10;14.47;;;9.33;;
10934;SDS011;5520;45.752;4.874;2022-12-11T11:10:48;14.50;;;8.87;;
10934;SDS011;5520;45.752;4.874;2022-12-11T11:13:16;11.97;;;8.00;;
10934;SDS011;5520;45.752;4.874;2022-12-11T11:15:47;14.33;;;9.00;;
10934;SDS011;5520;45.752;4.874;2022-12-11T11:18:18;12.73;;;9.97;;
10934;SDS011;5520;45.752;4.874;2022-12-11T11:20:50;15.37;;;9.70;;
10934;SDS011;5520;45.752;4.874;2022-12-11T11:23:19;15.13;;;9.10;;
10934;SDS011;5520;45.752;4.874;2022-12-11T11:25:48;13.37;;;7.83;;
10934;SDS011;5520;45.752;4.874;2022-12-11T11:28:17;10.87;;;7.53;;
10934;SDS011;5520;45.752;4.874;2022-12-11T11:30:54;14.13;;;9.17;;
10934;SDS011;5520;45.752;4.874;2022-12-11T11:33:24;14.13;;;8.50;;
10934;SDS011;5520;45.752;4.874;2022-12-11T11:35:53;12.57;;;8.37;;
10934;SDS011;5520;45.752;4.874;2022-12-11T11:38:23;12.97;;;8.57;;
10934;SDS011;5520;45.752;4.874;2022-12-11T11:40:53;13.13;;;7.53;;
10934;SDS011;5520;45.752;4.874;2022-12-11T11:43:31;12.47;;;9.30;;
10934;SDS011;5520;45.752;4.874;2022-12-11T11:46:02;14.00;;;8.70;;
10934;SDS011;5520;45.752;4.874;2022-12-11T11:48:37;11.20;;;7.37;;
10934;SDS011;5520;45.752;4.874;2022-12-11T11:51:10;13.57;;;9.10;;
10934;SDS011;5520;45.752;4.874;2022-12-11T11:53:40;14.27;;;9.53;;
10934;SDS011;5520;45.752;4.874;2022-12-11T11:56:17;18.53;;;10.97;;
10934;SDS011;5520;45.752;4.874;2022-12-11T11:58:49;13.83;;;8.30;;
10934;SDS011;5520;45.752;4.874;2022-12-11T12:01:20;16.07;;;10.47;;
10934;SDS011;5520;45.752;4.874;2022-12-11T12:03:50;19.03;;;11.70;;
10934;SDS011;5520;45.752;4.874;2022-12-11T12:06:22;13.80;;;8.70;;
10934;SDS011;5520;45.752;4.874;2022-12-11T12:08:53;14.50;;;9.43;;
10934;SDS011;5520;45.752;4.874;2022-12-11T12:11:30;12.30;;;7.70;;
10934;SDS011;5520;45.752;4.874;2022-12-11T12:14:04;17.73;;;9.03;;
10934;SDS011;5520;45.752;4.874;2022-12-11T12:16:57;11.40;;;8.40;;
10934;SDS011;5520;45.752;4.874;2022-12-11T12:19:35;15.97;;;8.67;;
10934;SDS011;5520;45.752;4.874;2022-12-11T12:22:07;16.20;;;10.23;;
10934;SDS011;5520;45.752;4.874;2022-12-11T12:24:42;14.47;;;8.73;;
10934;SDS011;5520;45.752;4.874;2022-12-11T12:27:16;16.37;;;8.73;;
10934;SDS011;5520;45.752;4.874;2022-12-11T12:30:07;13.63;;;8.73;;
10934;SDS011;5520;45.752;4.874;2022-12-11T12:32:44;14.90;;;8.67;;
10934;SDS011;5520;45.752;4.874;2022-12-11T12:35:18;17.53;;;10.10;;
10934;SDS011;5520;45.752;4.874;2022-12-11T12:37:52;15.27;;;10.10;;
10934;SDS011;5520;45.752;4.874;2022-12-11T12:40:25;18.90;;;9.97;;
10934;SDS011;5520;45.752;4.874;2022-12-11T12:42:56;15.47;;;8.97;;
10934;SDS011;5520;45.752;4.874;2022-12-11T12:45:27;12.83;;;8.40;;
10934;SDS011;5520;45.752;4.874;2022-12-11T12:47:56;14.43;;;10.30;;
10934;SDS011;5520;45.752;4.874;2022-12-11T12:50:27;14.63;;;8.27;;
10934;SDS011;5520;45.752;4.874;2022-12-11T12:52:56;16.23;;;9.67;;
10934;SDS011;5520;45.752;4.874;2022-12-11T12:55:25;14.00;;;10.53;;
10934;SDS011;5520;45.752;4.874;2022-12-11T12:57:55;14.60;;;8.27;;
10934;SDS011;5520;45.752;4.874;2022-12-11T13:00:30;13.60;;;8.47;;
10934;SDS011;5520;45.752;4.874;2022-12-11T13:02:58;13.40;;;9.40;;
10934;SDS011;5520;45.752;4.874;2022-12-11T13:05:31;15.97;;;9.83;;
10934;SDS011;5520;45.752;4.874;2022-12-11T13:08:01;13.10;;;9.53;;
10934;SDS011;5520;45.752;4.874;2022-12-11T13:10:30;12.80;;;8.00;;
10934;SDS011;5520;45.752;4.874;2022-12-11T13:12:59;15.33;;;10.00;;
10934;SDS011;5520;45.752;4.874;2022-12-11T13:15:32;16.70;;;9.23;;
10934;SDS011;5520;45.752;4.874;2022-12-11T13:18:01;17.57;;;9.00;;
10934;SDS011;5520;45.752;4.874;2022-12-11T13:20:32;17.10;;;9.90;;
10934;SDS011;5520;45.752;4.874;2022-12-11T13:23:08;20.13;;;8.70;;
10934;SDS011;5520;45.752;4.874;2022-12-11T13:25:47;16.23;;;10.30;;
10934;SDS011;5520;45.752;4.874;2022-12-11T13:28:20;21.63;;;10.97;;
10934;SDS011;5520;45.752;4.874;2022-12-11T13:30:55;13.27;;;8.70;;
10934;SDS011;5520;45.752;4.874;2022-12-11T13:33:24;13.23;;;8.73;;
10934;SDS011;5520;45.752;4.874;2022-12-11T13:36:05;14.93;;;8.60;;
10934;SDS011;5520;45.752;4.874;2022-12-11T13:38:49;11.90;;;7.83;;
10934;SDS011;5520;45.752;4.874;2022-12-11T13:41:18;15.33;;;9.03;;
10934;SDS011;5520;45.752;4.874;2022-12-11T13:43:46;18.63;;;10.60;;
10934;SDS011;5520;45.752;4.874;2022-12-11T13:46:18;18.43;;;10.10;;
10934;SDS011;5520;45.752;4.874;2022-12-11T13:48:47;14.30;;;8.57;;
10934;SDS011;5520;45.752;4.874;2022-12-11T13:51:19;18.50;;;9.23;;
10934;SDS011;5520;45.752;4.874;2022-12-11T13:53:47;14.03;;;9.17;;
10934;SDS011;5520;45.752;4.874;2022-12-11T13:56:17;14.30;;;8.23;;
10934;SDS011;5520;45.752;4.874;2022-12-11T13:58:45;16.47;;;9.83;;
10934;SDS011;5520;45.752;4.874;2022-12-11T14:01:15;21.13;;;11.13;;
10934;SDS011;5520;45.752;4.874;2022-12-11T14:03:46;19.37;;;10.30;;
10934;SDS011;5520;45.752;4.874;2022-12-11T14:06:15;20.20;;;11.33;;
10934;SDS011;5520;45.752;4.874;2022-12-11T14:08:47;15.13;;;10.23;;
10934;SDS011;5520;45.752;4.874;2022-12-11T14:11:17;16.93;;;9.53;;
10934;SDS011;5520;45.752;4.874;2022-12-11T14:13:47;14.10;;;8.60;;
10934;SDS011;5520;45.752;4.874;2022-12-11T14:16:18;15.73;;;9.33;;
10934;SDS011;5520;45.752;4.874;2022-12-11T14:18:47;13.80;;;8.87;;
10934;SDS011;5520;45.752;4.874;2022-12-11T14:21:17;19.30;;;10.33;;
10934;SDS011;5520;45.752;4.874;2022-12-11T14:23:51;16.00;;;9.80;;
10934;SDS011;5520;45.752;4.874;2022-12-11T14:26:21;21.67;;;10.77;;
10934;SDS011;5520;45.752;4.874;2022-12-11T14:28:50;16.60;;;9.63;;
10934;SDS011;5520;45.752;4.874;2022-12-11T14:31:19;16.63;;;9.67;;
10934;SDS011;5520;45.752;4.874;2022-12-11T14:33:50;19.20;;;11.80;;
10934;SDS011;5520;45.752;4.874;2022-12-11T14:36:19;15.53;;;10.03;;
10934;SDS011;5520;45.752;4.874;2022-12-11T14:38:48;20.23;;;10.90;;
10934;SDS011;5520;45.752;4.874;2022-12-11T14:41:22;18.30;;;10.63;;
10934;SDS011;5520;45.752;4.874;2022-12-11T14:43:52;20.87;;;11.87;;
10934;SDS011;5520;45.752;4.874;2022-12-11T14:46:21;18.83;;;11.70;;
10934;SDS011;5520;45.752;4.874;2022-12-11T14:48:51;17.63;;;9.57;;
10934;SDS011;5520;45.752;4.874;2022-12-11T14:51:26;20.50;;;10.47;;
10934;SDS011;5520;45.752;4.874;2022-12-11T14:53:55;16.80;;;10.00;;
10934;SDS011;5520;45.752;4.874;2022-12-11T14:56:26;17.10;;;10.40;;
10934;SDS011;5520;45.752;4.874;2022-12-11T14:58:56;20.80;;;11.83;;
10934;SDS011;5520;45.752;4.874;2022-12-11T15:01:26;22.27;;;10.60;;
10934;SDS011;5520;45.752;4.874;2022-12-11T15:04:01;23.43;;;11.30;;
10934;SDS011;5520;45.752;4.874;2022-12-11T15:06:30;19.83;;;11.13;;
10934;SDS011;5520;45.752;4.874;2022-12-11T15:09:08;21.73;;;10.17;;
10934;SDS011;5520;45.752;4.874;2022-12-11T15:11:37;17.88;;;10.55;;
10934;SDS011;5520;45.752;4.874;2022-12-11T15:14:08;22.37;;;10.50;;